Forside
METAR-TAF:

METAR-TAF

Lufthavne :

Gore Bay, Ontario, Canada

Breddekreds: 45-53N, længdekreds: 082-34W, højde: 193 m

Aktuelle vejr

Denne rapport blev lavet for 25 minutter siden, kl. 18:00 UTC
Vind 18 kt fra vestnordvest med vindstød på up til 27 kt
Temperatur 2°C
Fugtighed 35%
Tryk 1016 hPa
Sigt: 14.5 km
skyfri

METAR: CYZE 021800Z AUTO 30018G27KT 9SM CLR 02/M12 A3001 RMK SLP172

Tid: 13:25 (18:25 UTC)

Vejrudsigter

Denne rapport blev lavet for 4 timer og 44 minutter siden, kl. 13:41 UTC
Foreløbig gælder fra 02 på 14 UTC til 02 på 23 UTC
Vind 15 kt fra nordvest med vindstød på up til 25 kt
Sigt: 10 km
skyfri
Fra 02 på 2100 UTC
Vind 10 kt fra vestnordvest med vindstød på up til 20 kt
Sigt: 10 km
Nogle få skyer i en højde af 2000 ft
Midlertidig
fra 02 på 22 UTC til 02 på 23 UTC
Brudte skyer i en højde af 2000 ft

TAF: CYZE 021341Z 0214/0223 32015G25KT P6SM SKC FM022100 29010G20KT P6SM FEW020 TEMPO 0222/0223 BKN020 RMK FCST BASED ON AUTO OBS. NXT FCST BY 022000Z

Vejrobservationer og prognoser fra mere end 4000 lufthavne (METAR og TAF).

De gule og røde prikker repræsenterer de meteorologiske stationer.

Flyt musen over at se navnet på stationen.

Så klik over at se vejr observationer og prognoser.

At skifte det kort: Klik på de grønne knapper med et sort kors for at zoome ind; på den grønne knap med en bindestreg for at zoome ud; eller på de grønne pile for tilstødende kort.


METAR-TAF: